createdAt,value
2019-01-15T00:06:22.672Z,4.02
2019-01-15T00:12:48.868Z,4.04
2019-01-15T00:19:28.298Z,4.03
2019-01-15T00:29:19.679Z,4.03
2019-01-15T00:35:45.500Z,3.93
2019-01-15T00:42:15.489Z,3.95
2019-01-15T00:48:38.958Z,3.93
2019-01-15T00:55:17.917Z,3.97
2019-01-15T01:01:42.536Z,3.97
2019-01-15T01:08:08.741Z,3.97
2019-01-15T01:14:47.341Z,3.99
2019-01-15T01:21:15.529Z,3.96
2019-01-15T01:31:18.499Z,3.90
2019-01-15T01:37:46.342Z,3.89
2019-01-15T01:44:11.933Z,3.86
2019-01-15T01:50:54.569Z,3.83
2019-01-15T01:57:21.991Z,3.83
2019-01-15T02:03:49.831Z,3.84
2019-01-15T02:10:32.603Z,3.85
2019-01-15T02:16:35.409Z,3.84
2019-01-15T02:23:01.231Z,3.80
2019-01-15T02:33:02.183Z,3.73
2019-01-15T02:39:25.983Z,3.64
2019-01-15T02:46:02.911Z,3.54
2019-01-15T02:52:28.735Z,3.40
2019-01-15T02:58:56.311Z,3.28
2019-01-15T03:05:37.316Z,3.18
2019-01-15T03:12:06.396Z,3.01
2019-01-15T03:17:56.652Z,2.95
2019-01-15T03:24:23.322Z,2.97
2019-01-15T03:34:38.553Z,2.93
2019-01-15T03:41:22.421Z,2.92
2019-01-15T03:47:50.327Z,2.90
2019-01-15T03:54:16.442Z,2.90
2019-01-15T04:00:55.391Z,2.87
2019-01-15T04:07:23.022Z,2.86
2019-01-15T04:13:46.828Z,2.94
2019-01-15T04:19:38.269Z,2.97
2019-01-15T04:26:17.227Z,2.97
2019-01-15T04:35:59.225Z,3.06
2019-01-15T04:46:14.098Z,3.09
2019-01-15T04:52:42.817Z,3.14
2019-01-15T04:59:18.604Z,3.16
2019-01-15T05:06:00.729Z,3.12
2019-01-15T05:12:26.881Z,3.09
2019-01-15T05:18:15.973Z,3.10
2019-01-15T05:24:42.163Z,3.06
2019-01-15T05:31:24.387Z,2.99
2019-01-15T05:37:52.777Z,2.89
2019-01-15T05:47:58.596Z,2.83
2019-01-15T05:54:26.479Z,2.83
2019-01-15T06:01:12.849Z,2.73
2019-01-15T06:07:37.432Z,2.76
2019-01-15T06:14:03.281Z,2.67
2019-01-15T06:19:54.732Z,2.75
2019-01-15T06:26:37.369Z,2.81
2019-01-15T06:33:04.781Z,2.84
2019-01-15T06:39:43.736Z,2.85
2019-01-15T06:46:11.573Z,2.88
2019-01-15T06:52:39.203Z,2.90
2019-01-15T06:59:05.867Z,2.93
2019-01-15T07:05:32.064Z,2.91
2019-01-15T07:12:10.003Z,2.84
2019-01-15T07:18:14.405Z,2.89
2019-01-15T07:24:41.073Z,2.88
2019-01-15T07:31:07.255Z,2.93
2019-01-15T07:37:46.209Z,2.96
2019-01-15T07:44:14.049Z,3.03
2019-01-15T07:50:26.520Z,3.09
2019-01-15T07:56:55.237Z,3.11
2019-01-15T08:03:32.966Z,3.20
2019-01-15T08:10:00.360Z,3.26
2019-01-15T08:16:27.944Z,3.33
2019-01-15T08:23:05.131Z,3.40
2019-01-15T08:29:30.702Z,3.49
2019-01-15T08:35:56.553Z,3.57
2019-01-15T08:42:25.267Z,3.62
2019-01-15T08:52:02.333Z,3.71
2019-01-15T08:58:38.904Z,3.71
2019-01-15T09:05:05.079Z,3.79
2019-01-15T09:11:32.923Z,3.88
2019-01-15T09:18:09.851Z,3.99
2019-01-15T09:24:35.671Z,4.09
2019-01-15T09:31:04.137Z,4.18
2019-01-15T09:37:32.023Z,4.31
2019-01-15T09:44:11.330Z,4.42
2019-01-15T09:54:13.926Z,4.49
2019-01-15T10:00:40.122Z,4.55
2019-01-15T10:07:08.970Z,4.64
2019-01-15T10:13:48.933Z,4.72
2019-01-15T10:20:19.807Z,4.83
2019-01-15T10:26:48.653Z,4.97
2019-01-15T10:33:52.853Z,5.04
2019-01-15T10:40:31.078Z,5.14
2019-01-15T10:46:55.602Z,5.21
2019-01-15T10:53:55.527Z,5.17
2019-01-15T11:00:21.375Z,5.23
2019-01-15T11:06:50.915Z,5.29
2019-01-15T11:13:22.085Z,5.30
2019-01-15T11:19:45.888Z,5.41
2019-01-15T11:26:24.847Z,5.49
2019-01-15T11:32:51.514Z,5.58
2019-01-15T11:39:08.619Z,5.69
2019-01-15T11:45:47.571Z,5.73
2019-01-15T11:52:13.159Z,5.79
2019-01-15T12:02:54.742Z,5.87
2019-01-15T12:13:26.218Z,5.90
2019-01-15T12:20:07.969Z,5.82
2019-01-15T12:26:48.944Z,5.86
2019-01-15T12:33:42.052Z,5.89
2019-01-15T12:40:50.287Z,5.95
2019-01-15T12:47:34.279Z,5.92
2019-01-15T12:54:21.311Z,5.93
2019-01-15T13:04:52.563Z,6.03
2019-01-15T13:11:36.481Z,6.03
2019-01-15T13:18:34.700Z,6.06
2019-01-15T13:22:34.147Z,6.06
2019-01-15T13:29:15.048Z,6.00
2019-01-15T13:35:52.975Z,6.07
2019-01-15T13:42:48.790Z,6.06
2019-01-15T13:49:46.179Z,6.06
2019-01-15T13:55:57.701Z,6.04
2019-01-15T14:06:30.178Z,5.99
2019-01-15T14:13:16.189Z,6.07
2019-01-15T14:20:03.218Z,6.09
2019-01-15T14:27:03.044Z,6.07
2019-01-15T14:34:06.173Z,6.12
2019-01-15T14:41:15.914Z,6.02
2019-01-15T14:48:01.841Z,6.02
2019-01-15T14:54:43.589Z,6.00
2019-01-15T15:01:43.987Z,6.03
2019-01-15T15:08:53.116Z,5.99
2019-01-15T15:15:39.857Z,5.94
2019-01-15T15:22:19.211Z,5.95
2019-01-15T15:29:07.254Z,6.00
2019-01-15T15:35:48.219Z,6.05
2019-01-15T15:42:48.040Z,6.01
2019-01-15T15:49:31.385Z,5.98
2019-01-15T15:56:34.231Z,6.03
2019-01-15T16:07:23.991Z,6.01
2019-01-15T16:14:09.012Z,6.01
2019-01-15T16:21:12.081Z,6.04
2019-01-15T16:28:11.109Z,6.03
2019-01-15T16:35:07.268Z,6.04
2019-01-15T16:41:59.541Z,6.04
2019-01-15T16:48:53.647Z,6.05
2019-01-15T16:55:45.513Z,6.03
2019-01-15T17:02:29.386Z,5.98
2019-01-15T17:09:10.225Z,5.97
2019-01-15T17:15:51.394Z,6.00
2019-01-15T17:22:39.364Z,6.02
2019-01-15T17:29:36.836Z,5.97
2019-01-15T17:36:42.050Z,6.02
2019-01-15T17:43:27.060Z,5.96
2019-01-15T17:50:30.152Z,6.00
2019-01-15T17:57:20.315Z,6.03
2019-01-15T18:08:02.431Z,6.04
2019-01-15T18:15:01.468Z,5.95
2019-01-15T18:22:05.823Z,5.96
2019-01-15T18:25:24.988Z,5.99
2019-01-15T18:32:18.068Z,6.02
2019-01-15T18:39:13.181Z,6.03
2019-01-15T18:46:10.097Z,6.01
2019-01-15T18:52:24.887Z,5.98
2019-01-15T18:59:06.001Z,6.00
2019-01-15T19:09:41.281Z,5.98
2019-01-15T19:12:35.011Z,6.01
2019-01-15T19:19:46.405Z,6.04
2019-01-15T19:26:26.239Z,6.03
2019-01-15T19:33:07.783Z,6.04
2019-01-15T19:39:48.175Z,6.02
2019-01-15T19:46:11.974Z,5.96
2019-01-15T19:53:16.940Z,5.96
2019-01-15T19:59:57.943Z,5.94
2019-01-15T20:10:27.099Z,5.93
2019-01-15T20:17:18.048Z,5.91
2019-01-15T20:23:18.010Z,5.91
2019-01-15T20:30:04.032Z,5.92
2019-01-15T20:36:49.821Z,5.91
2019-01-15T20:43:41.883Z,5.88
2019-01-15T20:50:44.188Z,5.83
2019-01-15T20:57:37.076Z,5.80
2019-01-15T21:04:24.223Z,5.82
2019-01-15T21:11:15.469Z,5.77
2019-01-15T21:18:32.527Z,5.75
2019-01-15T21:25:37.694Z,5.74
2019-01-15T21:32:25.667Z,5.73
2019-01-15T21:39:08.715Z,5.72
2019-01-15T21:45:55.042Z,5.73
2019-01-15T21:53:05.130Z,5.70
2019-01-15T22:00:05.511Z,5.73
2019-01-15T22:06:58.598Z,5.73
2019-01-15T22:13:51.158Z,5.67
2019-01-15T22:20:47.808Z,5.71
2019-01-15T22:27:33.968Z,5.68
2019-01-15T22:34:20.859Z,5.70
2019-01-15T22:41:14.958Z,5.71
2019-01-15T22:47:32.569Z,5.70
2019-01-15T22:54:28.818Z,5.65
2019-01-15T23:01:18.881Z,5.62
2019-01-15T23:08:12.860Z,5.63
2019-01-15T23:14:47.405Z,5.65
2019-01-15T23:21:59.160Z,5.65
2019-01-15T23:28:40.858Z,5.63
2019-01-15T23:35:25.139Z,5.61
2019-01-15T23:42:15.159Z,5.63
2019-01-15T23:48:25.852Z,5.59
2019-01-15T23:55:10.881Z,5.62
